Time;durP1;ratioP1;P1;durP2;ratioP2;P2;SDS_P1;SDS_P2;PMS_P1;PMS_P2;Temp;Humidity;BMP_temperature;BMP_pressure;BME280_temperature;BME280_humidity;BME280_pressure;Samples;Min_cycle;Max_cycle;Signal;HPM_P1;HPM_P2
2021/06/09 00:01:14;;;;;;;11.27;9.90;;;19.00;99.90;;;;;;4990681;28;20045;-47
2021/06/09 00:03:39;;;;;;;12.02;9.75;;;18.90;99.90;;;;;;4990664;28;20544;-48
2021/06/09 00:06:05;;;;;;;13.32;10.23;;;18.80;99.90;;;;;;4990374;28;20022;-49
2021/06/09 00:08:30;;;;;;;10.27;9.32;;;18.80;99.90;;;;;;4990052;28;20022;-49
2021/06/09 00:10:56;;;;;;;13.13;9.75;;;18.80;99.90;;;;;;4990506;28;20031;-48
2021/06/09 00:13:28;;;;;;;10.05;9.02;;;18.70;99.90;;;;;;4990689;28;20023;-49
2021/06/09 00:15:55;;;;;;;13.52;9.38;;;18.80;99.90;;;;;;4991362;28;20113;-49
2021/06/09 00:18:21;;;;;;;10.65;9.55;;;18.70;99.90;;;;;;4990307;28;20333;-49
2021/06/09 00:20:46;;;;;;;10.55;9.45;;;18.70;99.90;;;;;;4990086;28;20034;-47
2021/06/09 00:23:17;;;;;;;9.95;8.80;;;18.60;99.90;;;;;;4990491;28;20461;-48
2021/06/09 00:25:48;;;;;;;10.85;9.75;;;18.60;99.90;;;;;;4972987;28;20030;-47
2021/06/09 00:28:14;;;;;;;9.77;8.88;;;18.60;99.90;;;;;;4990435;28;20030;-47
2021/06/09 00:30:40;;;;;;;10.30;9.30;;;18.60;99.90;;;;;;4989692;28;20031;-47
2021/06/09 00:33:06;;;;;;;10.20;9.15;;;18.60;99.90;;;;;;4972663;28;20038;-47
2021/06/09 00:35:31;;;;;;;9.48;8.48;;;18.60;99.90;;;;;;4990267;28;20030;-48
2021/06/09 00:37:57;;;;;;;11.13;9.57;;;18.60;99.90;;;;;;4990349;28;20493;-49
2021/06/09 00:40:24;;;;;;;11.30;9.85;;;18.60;99.90;;;;;;4989723;28;20030;-50
2021/06/09 00:43:10;;;;;;;9.95;9.05;;;18.60;99.90;;;;;;4990531;28;20026;-47
2021/06/09 00:45:38;;;;;;;10.88;8.95;;;18.70;99.90;;;;;;4971777;28;20540;-47
2021/06/09 00:48:04;;;;;;;14.85;10.32;;;18.70;99.90;;;;;;4990240;28;20277;-48
2021/06/09 00:50:30;;;;;;;11.40;9.70;;;18.60;99.90;;;;;;4972039;28;20023;-47
2021/06/09 00:53:27;;;;;;;9.55;8.52;;;18.60;99.90;;;;;;4990092;28;20466;-49
2021/06/09 00:55:42;;;;;;;;;;;18.70;99.90;;;;;;4990383;28;20038;-48
2021/06/09 00:58:09;;;;;;;9.50;8.70;;;18.60;99.90;;;;;;4989889;28;19905;-52
2021/06/09 01:00:34;;;;;;;10.90;9.80;;;18.60;99.90;;;;;;4989349;28;20054;-48
2021/06/09 01:03:01;;;;;;;10.50;8.85;;;18.60;99.90;;;;;;4989905;28;20061;-47
2021/06/09 01:05:26;;;;;;;10.07;9.07;;;18.60;99.90;;;;;;4989848;28;20046;-51
2021/06/09 01:07:52;;;;;;;11.90;9.27;;;18.70;99.90;;;;;;4989760;28;20029;-49
2021/06/09 01:10:17;;;;;;;11.60;8.90;;;18.70;99.90;;;;;;4992965;28;20026;-47
2021/06/09 01:12:43;;;;;;;10.18;8.95;;;18.80;99.90;;;;;;4993524;28;20451;-47
2021/06/09 01:15:09;;;;;;;9.48;8.55;;;18.70;99.90;;;;;;4976050;28;20121;-49
2021/06/09 01:17:35;;;;;;;9.85;8.95;;;18.70;99.90;;;;;;4992470;28;20041;-49
2021/06/09 01:20:00;;;;;;;10.23;9.13;;;18.70;99.90;;;;;;4992670;28;20043;-47
2021/06/09 01:22:26;;;;;;;10.50;9.40;;;18.70;99.90;;;;;;4993398;28;20026;-50
2021/06/09 01:24:51;;;;;;;10.70;9.60;;;18.80;99.90;;;;;;4993435;28;20524;-48
2021/06/09 01:27:21;;;;;;;18.58;10.23;;;18.70;99.90;;;;;;4993191;28;20474;-48
2021/06/09 01:29:47;;;;;;;11.68;9.00;;;18.70;99.90;;;;;;4974979;28;20029;-47
2021/06/09 01:32:13;;;;;;;12.07;8.73;;;18.70;99.90;;;;;;4993261;28;20030;-47
2021/06/09 01:34:38;;;;;;;15.15;8.73;;;18.60;99.90;;;;;;4993365;28;20028;-48
2021/06/09 01:37:04;;;;;;;10.70;9.40;;;18.60;99.90;;;;;;4993224;28;20057;-47
2021/06/09 01:39:29;;;;;;;9.90;8.90;;;18.60;99.90;;;;;;4992550;28;20030;-46
2021/06/09 01:41:55;;;;;;;11.73;10.18;;;18.60;99.90;;;;;;4992968;28;20499;-48
2021/06/09 01:44:20;;;;;;;9.55;8.73;;;18.60;99.90;;;;;;4993186;28;20500;-47
2021/06/09 01:46:47;;;;;;;10.63;9.00;;;18.60;99.90;;;;;;4993075;28;20473;-48
2021/06/09 01:49:14;;;;;;;10.10;9.02;;;18.50;99.90;;;;;;4992878;28;20023;-47
2021/06/09 01:51:40;;;;;;;16.20;10.68;;;18.60;99.90;;;;;;4992967;28;20401;-47
2021/06/09 01:54:07;;;;;;;10.95;9.98;;;18.50;99.90;;;;;;4975396;28;20034;-46
2021/06/09 01:56:33;;;;;;;10.38;9.38;;;18.50;99.90;;;;;;4993513;28;20046;-49
2021/06/09 01:59:09;;;;;;;10.68;8.95;;;18.40;99.90;;;;;;4992170;28;20441;-53
2021/06/09 02:01:35;;;;;;;9.95;9.02;;;18.40;99.90;;;;;;4992949;28;20027;-47
2021/06/09 02:04:01;;;;;;;12.70;10.02;;;18.40;99.90;;;;;;4992853;28;20026;-47
2021/06/09 02:06:27;;;;;;;10.98;9.38;;;18.50;99.90;;;;;;4975414;28;20172;-48
2021/06/09 02:08:53;;;;;;;13.05;9.65;;;18.50;99.90;;;;;;4992124;28;20018;-49
2021/06/09 02:11:18;;;;;;;11.38;9.63;;;18.50;99.90;;;;;;4992916;28;20026;-53
2021/06/09 02:13:44;;;;;;;10.55;9.25;;;18.40;99.90;;;;;;4992689;28;20041;-47
2021/06/09 02:16:10;;;;;;;12.80;10.10;;;18.40;99.90;;;;;;4992492;28;20472;-49
2021/06/09 02:18:39;;;;;;;13.02;10.02;;;18.40;99.90;;;;;;4974687;28;20038;-49
2021/06/09 02:21:05;;;;;;;14.55;8.35;;;18.50;99.90;;;;;;4992639;28;20031;-52
2021/06/09 02:23:34;;;;;;;13.55;9.75;;;18.40;99.90;;;;;;4992718;28;20029;-49
2021/06/09 02:26:01;;;;;;;10.50;8.93;;;18.50;99.90;;;;;;4992881;28;20014;-53
2021/06/09 02:28:30;;;;;;;11.38;9.27;;;18.50;99.90;;;;;;4992067;28;20402;-48
2021/06/09 02:30:56;;;;;;;13.07;8.95;;;18.50;99.90;;;;;;4996515;28;20249;-52
2021/06/09 02:33:24;;;;;;;10.52;9.48;;;18.50;99.90;;;;;;5006063;28;20029;-53
2021/06/09 02:35:51;;;;;;;9.57;8.68;;;18.50;99.90;;;;;;5010152;28;20034;-52
2021/06/09 02:38:17;;;;;;;9.75;8.85;;;18.50;99.90;;;;;;4998512;28;20045;-51
2021/06/09 02:40:46;;;;;;;11.70;9.90;;;18.50;99.90;;;;;;5010104;28;20390;-50
2021/06/09 02:43:12;;;;;;;10.13;9.23;;;18.40;99.90;;;;;;4992100;28;20092;-49
2021/06/09 02:45:38;;;;;;;10.75;9.30;;;18.40;99.90;;;;;;4992103;28;20513;-47
2021/06/09 02:48:07;;;;;;;13.20;10.15;;;18.40;99.90;;;;;;5011217;28;20473;-49
2021/06/09 02:50:34;;;;;;;12.77;8.85;;;18.40;99.90;;;;;;5010550;28;20491;-49
2021/06/09 02:53:33;;;;;;;11.43;9.02;;;18.50;99.90;;;;;;5010091;28;20034;-49
2021/06/09 02:56:17;;;;;;;11.85;9.93;;;18.40;99.90;;;;;;5009890;28;20608;-50
2021/06/09 02:58:51;;;;;;;11.77;10.65;;;18.40;99.90;;;;;;4991341;28;20061;-49
2021/06/09 03:01:26;;;;;;;10.68;9.38;;;18.40;99.90;;;;;;4993011;28;20030;-51
2021/06/09 03:04:17;;;;;;;14.30;10.20;;;18.40;99.90;;;;;;4991783;28;20437;-54
2021/06/09 03:06:53;;;;;;;13.73;8.90;;;18.40;99.90;;;;;;4998866;28;20481;-52
2021/06/09 03:09:43;;;;;;;11.13;9.95;;;18.30;99.90;;;;;;5010466;28;20026;-48
2021/06/09 03:12:13;;;;;;;13.05;8.93;;;18.30;99.90;;;;;;5008388;28;20053;-50
2021/06/09 03:15:13;;;;;;;10.50;9.55;;;18.30;99.90;;;;;;5011271;28;20044;-47
2021/06/09 03:17:43;;;;;;;10.07;9.18;;;18.20;99.90;;;;;;4952459;28;20057;-51
2021/06/09 03:20:11;;;;;;;10.35;9.35;;;18.20;99.90;;;;;;4990844;28;20440;-48
2021/06/09 03:22:56;;;;;;;11.65;9.43;;;18.20;99.90;;;;;;5006933;28;20444;-51
2021/06/09 03:25:28;;;;;;;14.25;10.13;;;18.20;99.90;;;;;;5011015;28;20210;-50
2021/06/09 03:28:00;;;;;;;11.07;9.98;;;18.20;99.90;;;;;;5009564;28;20461;-49
2021/06/09 03:30:29;;;;;;;12.02;9.93;;;18.20;99.90;;;;;;5008248;28;20029;-51
2021/06/09 03:33:07;;;;;;;10.88;9.13;;;18.20;99.90;;;;;;4990768;28;20030;-49
2021/06/09 03:35:42;;;;;;;12.65;9.38;;;18.20;99.90;;;;;;4991870;28;20022;-47
2021/06/09 03:38:21;;;;;;;9.55;8.55;;;18.20;99.90;;;;;;4990852;28;20092;-48
2021/06/09 03:40:52;;;;;;;10.32;9.35;;;18.20;99.90;;;;;;4993353;28;20484;-51
2021/06/09 03:43:21;;;;;;;11.95;9.70;;;18.30;99.90;;;;;;5010416;28;20029;-49
2021/06/09 03:45:50;;;;;;;11.02;8.98;;;18.30;99.90;;;;;;4991133;28;21580;-50
2021/06/09 03:48:17;;;;;;;12.85;8.80;;;18.30;99.90;;;;;;5010251;28;20049;-49
2021/06/09 03:50:46;;;;;;;8.75;7.95;;;18.30;99.90;;;;;;5003822;28;20113;-50
2021/06/09 03:53:11;;;;;;;10.68;9.48;;;18.30;99.90;;;;;;4990861;28;20034;-48
2021/06/09 03:55:39;;;;;;;9.02;7.97;;;18.40;99.90;;;;;;4991793;28;20022;-48
2021/06/09 03:58:08;;;;;;;9.55;7.82;;;18.40;99.90;;;;;;4990575;28;20041;-52
2021/06/09 04:00:34;;;;;;;9.35;8.32;;;18.40;99.90;;;;;;4993074;28;20037;-51
2021/06/09 04:03:02;;;;;;;9.77;8.73;;;18.40;99.90;;;;;;5010130;28;20022;-49
2021/06/09 04:05:28;;;;;;;10.20;9.20;;;18.50;99.90;;;;;;5008507;28;20025;-47
2021/06/09 04:07:58;;;;;;;15.77;8.85;;;18.50;99.90;;;;;;5010118;28;20108;-48
2021/06/09 04:10:25;;;;;;;8.82;8.00;;;18.50;99.90;;;;;;5007769;28;20018;-49
2021/06/09 04:12:51;;;;;;;10.15;9.15;;;18.40;99.90;;;;;;5010193;28;20025;-49
2021/06/09 04:15:19;;;;;;;8.95;8.05;;;18.40;99.90;;;;;;5008386;28;20133;-48
2021/06/09 04:17:47;;;;;;;8.95;8.10;;;18.40;99.90;;;;;;5010322;28;20076;-50
2021/06/09 04:20:13;;;;;;;9.90;8.60;;;18.40;99.90;;;;;;5006971;28;20810;-49
2021/06/09 04:22:39;;;;;;;8.73;7.90;;;18.40;99.90;;;;;;4990646;28;20501;-48
2021/06/09 04:25:08;;;;;;;9.20;8.40;;;18.40;99.90;;;;;;4990938;28;20018;-49
2021/06/09 04:27:38;;;;;;;14.10;9.70;;;18.40;99.90;;;;;;4992456;28;20065;-54
2021/06/09 04:30:05;;;;;;;9.93;8.98;;;18.60;99.90;;;;;;5009057;28;20018;-51
2021/06/09 04:32:47;;;;;;;13.45;8.57;;;18.50;99.90;;;;;;4990649;28;20176;-50
2021/06/09 04:35:13;;;;;;;11.68;9.63;;;18.40;99.90;;;;;;4990768;28;20049;-48
2021/06/09 04:37:39;;;;;;;13.85;8.88;;;18.50;99.90;;;;;;5008372;28;20125;-51
2021/06/09 04:40:05;;;;;;;9.90;8.70;;;18.50;99.90;;;;;;5008434;28;20105;-48
2021/06/09 04:42:31;;;;;;;10.57;9.07;;;18.50;99.90;;;;;;5009061;28;20026;-48
2021/06/09 04:44:56;;;;;;;9.40;8.50;;;18.60;99.90;;;;;;5013590;28;20022;-48
2021/06/09 04:47:28;;;;;;;9.75;8.75;;;18.60;99.90;;;;;;4995283;28;20031;-47
2021/06/09 04:49:53;;;;;;;9.77;8.75;;;18.60;99.90;;;;;;4993485;28;20042;-47
2021/06/09 04:52:19;;;;;;;10.10;9.07;;;18.70;99.90;;;;;;4977552;28;20118;-51
2021/06/09 04:54:44;;;;;;;9.50;8.60;;;18.70;99.90;;;;;;4994180;28;20485;-48
2021/06/09 04:57:10;;;;;;;10.85;8.88;;;18.80;99.90;;;;;;5009120;28;20041;-48
2021/06/09 04:59:36;;;;;;;12.93;9.63;;;18.80;99.90;;;;;;4995398;28;20026;-50
2021/06/09 05:02:01;;;;;;;10.57;9.57;;;18.90;99.90;;;;;;5011727;28;20490;-50
2021/06/09 05:04:27;;;;;;;9.25;8.10;;;19.10;99.90;;;;;;5013506;28;20116;-48
2021/06/09 05:06:53;;;;;;;13.95;8.32;;;19.20;99.90;;;;;;5000896;28;20065;-48
2021/06/09 05:09:18;;;;;;;11.82;8.65;;;19.20;99.90;;;;;;4992186;28;20485;-47
2021/06/09 05:11:56;;;;;;;9.75;8.75;;;19.30;99.90;;;;;;4994816;28;20049;-46
2021/06/09 05:14:27;;;;;;;9.65;8.60;;;19.30;99.90;;;;;;4976253;28;20049;-47
2021/06/09 05:16:54;;;;;;;10.77;9.02;;;19.30;99.90;;;;;;5004346;28;20025;-50
2021/06/09 05:19:23;;;;;;;13.15;10.15;;;19.20;99.90;;;;;;5012625;28;20022;-50
2021/06/09 05:21:54;;;;;;;10.48;9.48;;;19.20;99.90;;;;;;5011547;28;20037;-49
2021/06/09 05:24:26;;;;;;;11.30;10.30;;;19.20;99.90;;;;;;5013243;28;20014;-49
2021/06/09 05:26:52;;;;;;;11.00;9.77;;;19.20;99.90;;;;;;4985552;28;20027;-47
2021/06/09 05:29:17;;;;;;;13.90;9.43;;;19.20;99.90;;;;;;4992785;28;20026;-49
2021/06/09 05:31:46;;;;;;;10.35;9.18;;;19.20;99.90;;;;;;4994563;28;20389;-48
2021/06/09 05:34:13;;;;;;;10.57;8.73;;;19.10;99.90;;;;;;4975910;28;20081;-50
2021/06/09 05:36:39;;;;;;;13.23;10.05;;;19.10;99.90;;;;;;5000165;28;20038;-48
2021/06/09 05:39:05;;;;;;;10.50;9.40;;;19.20;99.90;;;;;;5012308;28;20033;-48
2021/06/09 05:41:31;;;;;;;10.27;9.13;;;19.20;99.90;;;;;;5010836;28;20097;-52
2021/06/09 05:43:56;;;;;;;9.63;8.63;;;19.20;99.90;;;;;;5012722;28;20114;-48
2021/06/09 05:46:25;;;;;;;9.88;8.88;;;19.20;99.90;;;;;;5008966;28;20034;-50
2021/06/09 05:48:51;;;;;;;9.73;8.07;;;19.30;99.90;;;;;;4992508;28;20027;-48
2021/06/09 05:51:17;;;;;;;10.73;8.70;;;19.30;99.90;;;;;;4994184;28;20374;-49
2021/06/09 05:53:43;;;;;;;10.23;8.80;;;19.40;99.90;;;;;;4992885;28;20041;-49
2021/06/09 05:56:10;;;;;;;9.13;8.23;;;19.40;99.90;;;;;;4994517;28;20026;-51
2021/06/09 05:58:38;;;;;;;9.00;8.10;;;19.50;99.90;;;;;;4992368;28;20038;-48
2021/06/09 06:01:06;;;;;;;10.57;9.20;;;19.60;99.90;;;;;;5012813;28;20109;-49
2021/06/09 06:03:32;;;;;;;11.30;10.10;;;19.80;99.90;;;;;;5012161;28;20033;-46
2021/06/09 06:06:05;;;;;;;13.38;9.95;;;19.90;99.90;;;;;;5009801;28;20404;-49
2021/06/09 06:08:35;;;;;;;13.38;11.23;;;20.00;99.90;;;;;;4995590;28;20022;-48
2021/06/09 06:11:05;;;;;;;14.85;10.88;;;20.20;99.90;;;;;;4975538;28;20505;-50
2021/06/09 06:13:30;;;;;;;14.70;12.18;;;20.30;99.90;;;;;;5011263;28;20033;-48
2021/06/09 06:15:56;;;;;;;13.23;11.82;;;20.40;99.90;;;;;;5030868;23;20038;-49
2021/06/09 06:18:39;;;;;;;17.55;11.13;;;20.50;99.90;;;;;;5070782;28;20072;-47
2021/06/09 06:21:10;;;;;;;13.75;9.48;;;20.50;99.90;;;;;;5033798;28;20021;-48
2021/06/09 06:23:38;;;;;;;11.32;9.88;;;20.50;99.90;;;;;;5036395;28;20028;-46
2021/06/09 06:26:04;;;;;;;15.65;10.00;;;20.40;99.90;;;;;;5071397;28;20031;-44
2021/06/09 06:28:31;;;;;;;12.43;9.45;;;20.50;99.90;;;;;;5067560;28;20025;-45
2021/06/09 06:30:58;;;;;;;13.15;9.82;;;20.40;99.90;;;;;;5050623;28;20021;-49
2021/06/09 06:33:25;;;;;;;10.93;9.82;;;20.40;99.90;;;;;;5057844;28;20565;-48
2021/06/09 06:35:52;;;;;;;12.30;11.10;;;20.40;99.90;;;;;;5065401;28;20032;-48
2021/06/09 06:38:19;;;;;;;13.10;11.70;;;20.40;99.90;;;;;;5070924;28;20475;-47
2021/06/09 06:40:44;;;;;;;11.65;10.25;;;20.40;99.90;;;;;;5070229;28;20052;-49
2021/06/09 06:43:11;;;;;;;12.95;10.95;;;20.50;99.90;;;;;;5053092;28;20025;-44
2021/06/09 06:45:38;;;;;;;14.45;10.85;;;20.60;99.90;;;;;;5070722;28;20029;-46
2021/06/09 06:48:04;;;;;;;14.38;11.35;;;20.70;99.90;;;;;;5068316;28;20028;-52
2021/06/09 06:50:30;;;;;;;13.52;11.27;;;20.80;99.90;;;;;;5052399;28;20103;-58
2021/06/09 06:52:57;;;;;;;12.38;9.90;;;20.90;99.90;;;;;;5052425;28;20111;-49
2021/06/09 06:55:23;;;;;;;15.05;11.18;;;21.00;99.90;;;;;;5052888;28;20025;-47
2021/06/09 06:57:50;;;;;;;13.18;11.80;;;21.10;99.90;;;;;;5070230;28;20036;-59
2021/06/09 07:00:19;;;;;;;13.68;10.32;;;21.20;99.90;;;;;;5069652;28;20028;-51
2021/06/09 07:02:51;;;;;;;10.40;9.25;;;21.30;99.90;;;;;;5070072;28;20029;-56
2021/06/09 07:05:18;;;;;;;10.38;8.50;;;21.50;99.90;;;;;;5052523;28;20020;-48
2021/06/09 07:07:44;;;;;;;9.60;8.60;;;21.80;99.90;;;;;;5068508;28;20092;-51
2021/06/09 07:10:13;;;;;;;12.13;10.85;;;22.00;99.90;;;;;;5070052;28;20023;-48
2021/06/09 07:12:40;;;;;;;11.98;10.77;;;22.10;99.90;;;;;;5053171;28;20060;-49
2021/06/09 07:15:11;;;;;;;11.18;10.07;;;22.20;99.90;;;;;;5069658;28;20032;-52
2021/06/09 07:17:40;;;;;;;14.35;12.10;;;22.00;99.90;;;;;;5070846;28;20395;-49
2021/06/09 07:20:17;;;;;;;13.98;11.00;;;21.80;99.90;;;;;;5070336;28;20436;-45
2021/06/09 07:22:43;;;;;;;13.60;11.30;;;21.80;99.90;;;;;;5052922;28;20063;-49
2021/06/09 07:25:10;;;;;;;13.25;11.85;;;22.00;99.90;;;;;;5070998;28;20082;-48
2021/06/09 07:27:39;;;;;;;13.85;11.00;;;22.20;99.90;;;;;;5052620;28;20044;-46
2021/06/09 07:30:10;;;;;;;11.20;10.20;;;22.20;99.90;;;;;;5069837;28;20031;-49
2021/06/09 07:32:40;;;;;;;11.57;10.38;;;22.30;99.90;;;;;;5070918;28;20016;-47
2021/06/09 07:35:07;;;;;;;12.77;11.23;;;22.50;99.90;;;;;;5070864;28;20429;-44
2021/06/09 07:37:36;;;;;;;11.80;10.63;;;22.60;99.90;;;;;;5070544;28;20068;-49
2021/06/09 07:40:07;;;;;;;11.88;10.02;;;22.90;99.90;;;;;;5069738;28;20074;-47
2021/06/09 07:42:34;;;;;;;11.30;9.85;;;23.40;99.90;;;;;;5068955;28;20066;-48
2021/06/09 07:45:08;;;;;;;9.95;8.95;;;24.10;98.80;;;;;;5068931;28;20016;-47
2021/06/09 07:47:34;;;;;;;11.23;8.68;;;25.20;97.50;;;;;;5067593;28;20016;-47
2021/06/09 07:50:04;;;;;;;9.85;8.13;;;26.20;95.80;;;;;;5069956;28;20021;-48
2021/06/09 07:52:31;;;;;;;8.45;7.47;;;27.00;95.40;;;;;;5069641;28;20036;-48
2021/06/09 07:54:57;;;;;;;9.73;7.55;;;27.80;92.10;;;;;;5070034;28;20036;-46
2021/06/09 07:57:25;;;;;;;8.48;7.63;;;28.60;91.60;;;;;;5070263;28;20029;-52
2021/06/09 07:59:51;;;;;;;9.25;7.13;;;29.40;90.80;;;;;;5051366;28;20290;-50
2021/06/09 08:02:19;;;;;;;6.20;5.50;;;29.50;88.60;;;;;;5069736;28;20032;-53
2021/06/09 08:04:45;;;;;;;5.90;5.35;;;30.20;86.10;;;;;;5052356;28;20076;-47
2021/06/09 08:07:10;;;;;;;7.05;6.10;;;30.70;83.80;;;;;;5069690;28;20391;-48
2021/06/09 08:09:36;;;;;;;11.10;8.27;;;30.80;81.00;;;;;;5069941;28;20028;-48
2021/06/09 08:12:05;;;;;;;10.40;7.95;;;31.10;79.30;;;;;;5069994;28;20020;-47
2021/06/09 08:14:30;;;;;;;10.40;6.65;;;31.50;76.90;;;;;;5069977;28;20556;-49
2021/06/09 08:16:56;;;;;;;8.75;7.63;;;31.20;77.80;;;;;;5069213;28;20036;-50
2021/06/09 08:19:22;;;;;;;8.98;8.18;;;30.80;78.00;;;;;;5068837;28;20078;-50
2021/06/09 08:21:47;;;;;;;8.02;7.22;;;30.30;77.80;;;;;;5062004;28;20361;-54
2021/06/09 08:24:13;;;;;;;8.18;6.90;;;30.30;79.30;;;;;;5049995;28;20399;-57
2021/06/09 08:26:39;;;;;;;10.25;8.50;;;30.20;80.10;;;;;;5064092;28;20025;-51
2021/06/09 08:29:05;;;;;;;7.90;7.20;;;29.30;80.90;;;;;;5069245;28;20454;-53
2021/06/09 08:31:32;;;;;;;8.63;7.82;;;29.30;82.20;;;;;;5051760;28;20025;-51
2021/06/09 08:34:00;;;;;;;10.25;7.78;;;29.30;83.70;;;;;;5068501;28;20504;-50
2021/06/09 08:36:26;;;;;;;8.98;8.07;;;29.50;81.60;;;;;;5062071;28;20124;-54
2021/06/09 08:38:55;;;;;;;10.73;6.53;;;29.70;83.00;;;;;;5066452;28;20125;-51
2021/06/09 08:41:23;;;;;;;8.30;7.50;;;30.00;82.20;;;;;;5051448;28;20029;-49
2021/06/09 08:43:50;;;;;;;9.02;7.95;;;30.20;82.00;;;;;;5051379;28;20055;-46
2021/06/09 08:46:17;;;;;;;7.95;7.10;;;30.20;80.90;;;;;;5069581;28;20033;-53
2021/06/09 08:48:45;;;;;;;10.85;8.00;;;30.10;80.60;;;;;;5052786;28;20025;-49
2021/06/09 08:51:13;;;;;;;8.05;7.25;;;30.00;81.30;;;;;;5059882;28;20040;-48
2021/06/09 08:53:44;;;;;;;11.20;9.25;;;30.00;82.30;;;;;;5069619;28;20443;-49
2021/06/09 08:56:10;;;;;;;9.35;8.20;;;29.50;79.40;;;;;;5051419;28;20495;-53
2021/06/09 08:58:37;;;;;;;8.82;8.02;;;29.50;81.00;;;;;;5068997;28;20037;-50
2021/06/09 09:01:04;;;;;;;9.57;8.55;;;29.50;81.10;;;;;;5069789;28;20039;-50
2021/06/09 09:03:29;;;;;;;8.23;7.43;;;29.50;81.20;;;;;;5069187;28;20111;-51
2021/06/09 09:05:55;;;;;;;8.25;6.85;;;29.80;83.10;;;;;;5069729;28;20577;-46
2021/06/09 09:08:21;;;;;;;9.23;7.38;;;29.90;83.60;;;;;;5069098;28;20020;-47
2021/06/09 09:10:46;;;;;;;7.95;7.25;;;29.80;85.20;;;;;;5068956;28;20028;-48
2021/06/09 09:13:12;;;;;;;9.52;7.32;;;29.70;85.00;;;;;;5067420;28;20352;-44
2021/06/09 09:15:38;;;;;;;9.98;7.80;;;29.20;84.40;;;;;;5055179;28;20369;-49
2021/06/09 09:18:05;;;;;;;10.43;9.45;;;29.10;86.10;;;;;;5057378;28;20029;-51
2021/06/09 09:20:30;;;;;;;10.93;8.60;;;29.10;85.20;;;;;;5068728;28;20391;-48
2021/06/09 09:22:58;;;;;;;9.52;8.23;;;29.20;84.60;;;;;;5067632;28;20021;-47
2021/06/09 09:25:26;;;;;;;8.48;7.22;;;29.30;85.50;;;;;;5069412;28;20046;-48
2021/06/09 09:27:52;;;;;;;6.55;5.93;;;29.50;80.90;;;;;;5069478;28;20024;-46
2021/06/09 09:30:19;;;;;;;7.72;7.00;;;29.60;80.00;;;;;;5070846;28;20232;-47
2021/06/09 09:32:57;;;;;;;9.57;8.05;;;29.60;82.90;;;;;;5073154;28;20465;-53
2021/06/09 09:35:32;;;;;;;12.93;8.90;;;29.40;83.80;;;;;;5072978;28;20024;-47
2021/06/09 09:38:14;;;;;;;9.32;8.20;;;29.20;83.00;;;;;;5073016;28;20020;-50
2021/06/09 09:41:05;;;;;;;9.00;8.20;;;29.20;85.50;;;;;;5072206;28;20509;-48
2021/06/09 09:43:52;;;;;;;7.82;6.63;;;29.30;85.40;;;;;;5073034;28;20470;-49
2021/06/09 09:46:34;;;;;;;8.45;7.63;;;29.20;82.40;;;;;;5073122;28;20028;-48
2021/06/09 09:49:05;;;;;;;7.60;6.38;;;28.30;82.40;;;;;;5072400;28;20021;-55
2021/06/09 09:51:34;;;;;;;7.70;7.00;;;28.50;83.70;;;;;;5072766;28;20025;-48
2021/06/09 09:54:04;;;;;;;9.45;7.05;;;28.60;84.60;;;;;;5073086;28;20032;-54
2021/06/09 09:56:33;;;;;;;9.38;7.38;;;28.80;85.90;;;;;;5071583;28;20044;-51
2021/06/09 09:59:10;;;;;;;8.40;7.57;;;28.50;85.70;;;;;;5071987;28;20485;-47
2021/06/09 10:01:38;;;;;;;11.75;7.47;;;28.20;87.20;;;;;;5072819;28;20074;-50
2021/06/09 10:04:06;;;;;;;8.65;6.70;;;27.70;88.50;;;;;;5072506;28;20390;-46
2021/06/09 10:06:38;;;;;;;7.70;6.75;;;27.60;87.60;;;;;;5072310;28;20032;-53
2021/06/09 10:09:18;;;;;;;8.75;7.05;;;27.80;89.10;;;;;;5071862;28;20207;-44
2021/06/09 10:11:45;;;;;;;8.02;6.72;;;27.80;86.00;;;;;;5072307;28;20025;-52
2021/06/09 10:14:35;;;;;;;9.75;8.18;;;27.70;88.70;;;;;;5072300;28;20170;-48
2021/06/09 10:17:10;;;;;;;9.00;8.10;;;27.30;87.00;;;;;;5053910;28;20548;-49
2021/06/09 10:19:37;;;;;;;7.90;7.20;;;27.10;88.40;;;;;;5071410;28;20059;-47
2021/06/09 10:22:06;;;;;;;7.57;6.75;;;27.00;88.60;;;;;;5072109;28;20025;-49
2021/06/09 10:24:56;;;;;;;9.13;8.25;;;26.80;90.90;;;;;;5072313;28;20105;-48
2021/06/09 10:27:48;;;;;;;12.70;9.20;;;26.80;90.60;;;;;;5072231;28;20020;-46
2021/06/09 10:30:20;;;;;;;9.80;7.28;;;26.80;87.40;;;;;;5071151;28;20020;-55
2021/06/09 10:32:58;;;;;;;7.78;7.03;;;26.80;88.80;;;;;;5072035;28;20114;-47
2021/06/09 10:35:35;;;;;;;7.53;6.82;;;27.00;88.60;;;;;;5071857;28;20505;-50
2021/06/09 10:38:03;;;;;;;7.70;6.65;;;27.30;89.10;;;;;;5072251;28;20101;-46
2021/06/09 10:40:30;;;;;;;6.00;5.50;;;27.40;87.60;;;;;;5071409;28;20024;-44
2021/06/09 10:42:59;;;;;;;5.35;4.95;;;27.60;85.10;;;;;;5071895;28;20020;-46
2021/06/09 10:45:25;;;;;;;6.63;5.97;;;27.70;85.00;;;;;;5071883;28;20072;-46
2021/06/09 10:47:55;;;;;;;8.15;6.05;;;27.80;85.30;;;;;;5072289;28;20017;-47
2021/06/09 10:50:21;;;;;;;9.18;6.25;;;27.90;84.00;;;;;;5071928;28;20123;-47
2021/06/09 10:52:48;;;;;;;6.90;6.15;;;27.70;82.60;;;;;;5071809;28;20492;-47
2021/06/09 10:55:13;;;;;;;9.02;6.15;;;27.60;85.20;;;;;;5072462;28;20025;-51
2021/06/09 10:57:40;;;;;;;11.50;5.90;;;27.50;87.70;;;;;;5072247;28;20501;-43
2021/06/09 11:00:12;;;;;;;6.97;6.32;;;27.30;87.50;;;;;;5072108;28;20024;-47
2021/06/09 11:02:39;;;;;;;12.10;6.50;;;27.30;87.20;;;;;;5071288;28;20025;-48
2021/06/09 11:05:07;;;;;;;6.22;5.72;;;27.30;87.00;;;;;;5071679;28;20024;-49
2021/06/09 11:07:39;;;;;;;7.10;6.03;;;27.20;85.90;;;;;;5053547;28;20051;-50
2021/06/09 11:10:38;;;;;;;6.70;5.97;;;26.90;85.10;;;;;;5071357;28;20546;-47
2021/06/09 11:13:04;;;;;;;9.10;6.20;;;26.90;86.30;;;;;;5067612;28;20107;-48
2021/06/09 11:15:34;;;;;;;7.03;6.47;;;26.90;86.70;;;;;;5071311;28;20140;-51
2021/06/09 11:18:22;;;;;;;6.57;5.63;;;26.90;85.70;;;;;;5071277;28;20498;-49
2021/06/09 11:20:50;;;;;;;9.90;6.38;;;26.90;88.10;;;;;;5071186;28;20408;-46
2021/06/09 11:23:33;;;;;;;7.00;6.25;;;26.90;86.80;;;;;;5070563;28;20099;-48
2021/06/09 11:26:00;;;;;;;9.98;6.47;;;27.00;86.30;;;;;;5071554;28;20406;-48
2021/06/09 11:28:31;;;;;;;7.35;6.32;;;27.00;87.10;;;;;;5052928;28;20024;-50
2021/06/09 11:30:58;;;;;;;5.75;5.25;;;26.90;85.90;;;;;;5071472;28;20166;-48
2021/06/09 11:33:53;;;;;;;6.13;5.65;;;26.80;84.80;;;;;;5070875;28;20032;-49
2021/06/09 11:36:19;;;;;;;6.07;5.57;;;26.80;84.10;;;;;;5071206;28;20094;-53
2021/06/09 11:38:57;;;;;;;6.10;5.43;;;26.90;85.60;;;;;;5070551;28;20037;-49
2021/06/09 11:41:28;;;;;;;6.90;5.10;;;27.00;85.80;;;;;;5071108;28;20095;-48
2021/06/09 11:43:57;;;;;;;5.95;5.40;;;27.10;84.80;;;;;;5070859;28;20468;-48
2021/06/09 11:46:31;;;;;;;6.93;5.82;;;27.10;86.50;;;;;;5070931;28;20020;-50
2021/06/09 11:49:01;;;;;;;6.10;5.50;;;27.20;85.80;;;;;;5070502;28;20040;-53
2021/06/09 11:51:36;;;;;;;5.82;5.43;;;27.20;85.40;;;;;;5052807;28;20024;-47
2021/06/09 11:54:14;;;;;;;5.70;5.20;;;27.20;87.10;;;;;;5070239;28;20044;-48
2021/06/09 11:56:46;;;;;;;5.72;5.22;;;27.20;85.80;;;;;;5070191;28;20050;-47
2021/06/09 11:59:29;;;;;;;6.05;5.53;;;27.20;85.90;;;;;;5070120;28;20024;-50
2021/06/09 12:01:59;;;;;;;6.68;4.93;;;27.10;86.60;;;;;;5069526;28;20584;-47
2021/06/09 12:04:29;;;;;;;6.18;5.55;;;27.00;86.60;;;;;;5069253;28;20422;-47
2021/06/09 12:07:00;;;;;;;6.40;5.90;;;27.10;88.60;;;;;;5068032;28;20100;-49
2021/06/09 12:09:30;;;;;;;6.03;5.53;;;27.20;86.90;;;;;;5068752;28;20044;-51
2021/06/09 12:11:57;;;;;;;7.47;5.55;;;27.20;86.80;;;;;;5069523;28;20098;-51
2021/06/09 12:14:32;;;;;;;6.22;5.63;;;27.30;86.30;;;;;;5069919;28;20036;-49
2021/06/09 12:17:10;;;;;;;5.65;5.00;;;27.30;85.90;;;;;;5081681;22;20483;-48
2021/06/09 12:19:36;;;;;;;6.30;5.70;;;27.40;84.20;;;;;;5048115;28;20025;-47
2021/06/09 12:22:08;;;;;;;6.00;5.50;;;27.30;85.00;;;;;;5049460;28;20091;-51
2021/06/09 12:24:37;;;;;;;6.07;5.57;;;27.30;84.30;;;;;;5032294;28;20029;-50
2021/06/09 12:27:09;;;;;;;6.32;5.70;;;27.30;85.20;;;;;;5049973;28;20021;-49
2021/06/09 12:29:37;;;;;;;6.47;5.82;;;27.30;84.80;;;;;;5048552;28;20104;-51
2021/06/09 12:32:23;;;;;;;9.00;5.50;;;27.30;84.50;;;;;;5048908;28;20172;-50
2021/06/09 12:34:56;;;;;;;7.18;5.60;;;27.20;84.90;;;;;;5049646;28;20507;-49
2021/06/09 12:37:22;;;;;;;6.47;5.97;;;27.20;85.80;;;;;;5048166;28;20021;-51
2021/06/09 12:40:19;;;;;;;6.22;5.63;;;27.10;86.20;;;;;;5049616;28;20033;-51
2021/06/09 12:42:56;;;;;;;6.53;5.93;;;27.00;86.80;;;;;;5029423;28;20079;-51
2021/06/09 12:45:26;;;;;;;10.40;6.10;;;27.10;86.70;;;;;;5049476;28;20095;-48
2021/06/09 12:47:53;;;;;;;5.65;5.15;;;27.00;86.30;;;;;;5049240;28;20170;-51
2021/06/09 12:50:33;;;;;;;5.40;4.90;;;27.00;86.20;;;;;;5048963;28;20036;-58
2021/06/09 12:53:27;;;;;;;9.05;5.03;;;27.00;86.20;;;;;;5049167;28;20459;-47